METAR Formatted Surface Weather Observation
Issued by NWS

Home | Current Version | Previous Version | Text Only | Print | Product List | Glossary Off
Versions: 1 2 3 4 5 6 7 8 9 10 11 12 13 14 15 16 17 18 19 20 21 22 23 24 25 26 27

000
SAUS42 KTAE 270600
MTR1J0
METAR K1J0 270558Z AUTO 00000KT 7SM CLR 21/20 A3006 RMK AO2 SLP135
T02110200 10272 20206 403170183 58010



USA.gov is the U.S. government's official web portal to all federal, state and local government web resources and services.